AXY1 ZBAA-EGLL
Flight info
| Callsign | AXY1 |
|---|---|
| Flight time | N/A |
| Altitude | 30100 |
| Route | BOTPU7X BOTPU W47 VIGEK W96 UPSUR W69 DKO W66 GOVSA/K0909S0980 W66 NUKTI B215 FKG A368 SARIN/K0906F320 N161 ALZIS/K0893F340 N161 GASBI/N0486F340 N161 LEYLA N644 TETRO M10 SARPI UM10 GOKPA/N0484F360 UL746 ODERO DCT LUGEB DCT DEGET DCT BEGLA DCT DEXIT DCT INBED DCT BOMBI DCT ADKUV DCT NIK/N0399F180 L179 KEGIT/N0479F360 L608 SASKI/N0486F320 L608 LOGAN |
| Aircraft | A346/H-SDE2E3FGHIJ3J4J5M1RWXY/LB1D1 |
Departure
| Time | 2026-05-04 00:42 |
|---|---|
| Airport | Beijing Capital International Airport (ZBAA) |
Arrival
| Time | N/A |
|---|---|
| Airport | London Heathrow Airport (EGLL) |
| Time | Latitude | Longitude | Altitude | Speed | Heading |
|---|---|---|---|---|---|
| 2026-05-04 00:08 | 40.07824 | 116.60685 | 133 ft | 0 kts | 143° |
| 2026-05-04 00:20 | 40.07830 | 116.60680 | 133 ft | 2 kts | 148° |
| 2026-05-04 00:21 | 40.07843 | 116.60671 | 133 ft | 2 kts | 161° |
| 2026-05-04 00:21 | 40.07858 | 116.60665 | 133 ft | 2 kts | 172° |
| 2026-05-04 00:21 | 40.07873 | 116.60664 | 133 ft | 2 kts | 183° |
| 2026-05-04 00:21 | 40.07888 | 116.60667 | 133 ft | 2 kts | 194° |
| 2026-05-04 00:22 | 40.07902 | 116.60673 | 133 ft | 2 kts | 205° |
| 2026-05-04 00:22 | 40.07915 | 116.60682 | 133 ft | 2 kts | 216° |
| 2026-05-04 00:22 | 40.07927 | 116.60695 | 133 ft | 2 kts | 227° |
| 2026-05-04 00:22 | 40.07936 | 116.60709 | 133 ft | 2 kts | 236° |
| 2026-05-04 00:23 | 40.07942 | 116.60722 | 133 ft | 0 kts | 236° |
| 2026-05-04 00:23 | 40.07943 | 116.60722 | 133 ft | 0 kts | 236° |
| 2026-05-04 00:28 | 40.07941 | 116.60719 | 133 ft | 1 kts | 236° |
| 2026-05-04 00:28 | 40.07930 | 116.60698 | 133 ft | 4 kts | 236° |
| 2026-05-04 00:28 | 40.07923 | 116.60653 | 133 ft | 6 kts | 288° |
| 2026-05-04 00:29 | 40.07965 | 116.60612 | 133 ft | 9 kts | 342° |
| 2026-05-04 00:29 | 40.08035 | 116.60593 | 133 ft | 11 kts | 350° |
| 2026-05-04 00:29 | 40.08118 | 116.60577 | 133 ft | 12 kts | 343° |
| 2026-05-04 00:29 | 40.08157 | 116.60491 | 133 ft | 12 kts | 268° |
| 2026-05-04 00:30 | 40.08146 | 116.60377 | 133 ft | 13 kts | 263° |
| 2026-05-04 00:30 | 40.08134 | 116.60249 | 133 ft | 14 kts | 263° |
| 2026-05-04 00:30 | 40.08122 | 116.60115 | 133 ft | 15 kts | 263° |
| 2026-05-04 00:30 | 40.08109 | 116.59972 | 133 ft | 16 kts | 263° |
| 2026-05-04 00:31 | 40.08045 | 116.59870 | 133 ft | 15 kts | 189° |
| 2026-05-04 00:31 | 40.07935 | 116.59875 | 133 ft | 16 kts | 173° |
| 2026-05-04 00:31 | 40.07821 | 116.59892 | 133 ft | 16 kts | 174° |
| 2026-05-04 00:31 | 40.07704 | 116.59910 | 133 ft | 17 kts | 173° |
| 2026-05-04 00:32 | 40.07583 | 116.59929 | 133 ft | 17 kts | 173° |
| 2026-05-04 00:32 | 40.07460 | 116.59948 | 133 ft | 17 kts | 173° |
| 2026-05-04 00:32 | 40.07335 | 116.59968 | 133 ft | 18 kts | 173° |
| 2026-05-04 00:32 | 40.07208 | 116.59988 | 133 ft | 18 kts | 173° |
| 2026-05-04 00:33 | 40.07080 | 116.60008 | 133 ft | 18 kts | 174° |
| 2026-05-04 00:33 | 40.06818 | 116.60050 | 133 ft | 19 kts | 174° |
| 2026-05-04 00:33 | 40.06684 | 116.60070 | 133 ft | 19 kts | 174° |
| 2026-05-04 00:34 | 40.06548 | 116.60090 | 133 ft | 19 kts | 173° |
| 2026-05-04 00:34 | 40.06413 | 116.60112 | 133 ft | 19 kts | 173° |
| 2026-05-04 00:34 | 40.06275 | 116.60133 | 133 ft | 19 kts | 173° |
| 2026-05-04 00:34 | 40.06135 | 116.60155 | 133 ft | 20 kts | 174° |
| 2026-05-04 00:35 | 40.05996 | 116.60176 | 133 ft | 20 kts | 173° |
| 2026-05-04 00:35 | 40.05853 | 116.60199 | 133 ft | 20 kts | 174° |
| 2026-05-04 00:35 | 40.05718 | 116.60220 | 133 ft | 17 kts | 173° |
| 2026-05-04 00:35 | 40.05609 | 116.60239 | 133 ft | 12 kts | 173° |
| 2026-05-04 00:36 | 40.05559 | 116.60236 | 133 ft | 4 kts | 204° |
| 2026-05-04 00:36 | 40.05545 | 116.60214 | 133 ft | 0 kts | 245° |
| 2026-05-04 00:39 | 40.05542 | 116.60207 | 133 ft | 2 kts | 246° |
| 2026-05-04 00:39 | 40.05535 | 116.60169 | 133 ft | 6 kts | 262° |
| 2026-05-04 00:39 | 40.05536 | 116.60099 | 133 ft | 8 kts | 290° |
| 2026-05-04 00:39 | 40.05565 | 116.60033 | 133 ft | 6 kts | 306° |
| 2026-05-04 00:40 | 40.05593 | 116.60008 | 133 ft | 4 kts | 345° |
| 2026-05-04 00:40 | 40.05601 | 116.60005 | 133 ft | 0 kts | 352° |
| 2026-05-04 00:40 | 40.05611 | 116.60004 | 133 ft | 7 kts | 352° |
| 2026-05-04 00:41 | 40.05849 | 116.59963 | 133 ft | 65 kts | 353° |
| 2026-05-04 00:41 | 40.06513 | 116.59857 | 133 ft | 122 kts | 353° |
| 2026-05-04 00:41 | 40.07531 | 116.59700 | 133 ft | 169 kts | 354° |
| 2026-05-04 00:41 | 40.08806 | 116.59501 | 281 ft | 191 kts | 352° |
| 2026-05-04 00:42 | 40.10144 | 116.59299 | 648 ft | 194 kts | 352° |
| 2026-05-04 00:42 | 40.11484 | 116.59103 | 1195 ft | 192 kts | 352° |
| 2026-05-04 00:42 | 40.12794 | 116.58911 | 1802 ft | 188 kts | 352° |
| 2026-05-04 00:42 | 40.14109 | 116.58712 | 2123 ft | 196 kts | 351° |
| 2026-05-04 00:43 | 40.15520 | 116.58492 | 2332 ft | 207 kts | 352° |
| 2026-05-04 00:43 | 40.16986 | 116.58266 | 2553 ft | 218 kts | 352° |
| 2026-05-04 00:43 | 40.18543 | 116.58027 | 2748 ft | 233 kts | 352° |
| 2026-05-04 00:43 | 40.20206 | 116.57770 | 3009 ft | 248 kts | 351° |
| 2026-05-04 00:44 | 40.21978 | 116.57497 | 3359 ft | 260 kts | 352° |
| 2026-05-04 00:44 | 40.23804 | 116.57214 | 3819 ft | 267 kts | 352° |
| 2026-05-04 00:44 | 40.25676 | 116.56925 | 4379 ft | 271 kts | 352° |
| 2026-05-04 00:44 | 40.27548 | 116.56638 | 5031 ft | 272 kts | 352° |
| 2026-05-04 00:45 | 40.29413 | 116.56246 | 5677 ft | 272 kts | 339° |
| 2026-05-04 00:45 | 40.30938 | 116.54854 | 6269 ft | 271 kts | 306° |
| 2026-05-04 00:45 | 40.31687 | 116.52676 | 6862 ft | 275 kts | 281° |
| 2026-05-04 00:45 | 40.31729 | 116.50174 | 7443 ft | 280 kts | 271° |
| 2026-05-04 00:46 | 40.31685 | 116.47639 | 8017 ft | 283 kts | 272° |
| 2026-05-04 00:46 | 40.31669 | 116.45035 | 8597 ft | 285 kts | 273° |
| 2026-05-04 00:46 | 40.31663 | 116.42434 | 9170 ft | 288 kts | 273° |
| 2026-05-04 00:46 | 40.31661 | 116.39809 | 9719 ft | 291 kts | 274° |
| 2026-05-04 00:47 | 40.31659 | 116.37142 | 10252 ft | 295 kts | 274° |
| 2026-05-04 00:47 | 40.31661 | 116.34417 | 10542 ft | 307 kts | 273° |
| 2026-05-04 00:47 | 40.31663 | 116.31540 | 10782 ft | 321 kts | 274° |
| 2026-05-04 00:47 | 40.31665 | 116.28573 | 11021 ft | 335 kts | 273° |
| 2026-05-04 00:48 | 40.31664 | 116.25472 | 11254 ft | 348 kts | 273° |
| 2026-05-04 00:48 | 40.31661 | 116.22257 | 11497 ft | 361 kts | 273° |
| 2026-05-04 00:48 | 40.31656 | 116.18914 | 11784 ft | 372 kts | 273° |
| 2026-05-04 00:48 | 40.31649 | 116.15497 | 12320 ft | 376 kts | 273° |
| 2026-05-04 00:49 | 40.31640 | 116.12077 | 12903 ft | 379 kts | 274° |
| 2026-05-04 00:49 | 40.31629 | 116.08600 | 13470 ft | 382 kts | 274° |
| 2026-05-04 00:49 | 40.31620 | 116.05100 | 14004 ft | 385 kts | 274° |
| 2026-05-04 00:49 | 40.31611 | 116.01599 | 14539 ft | 388 kts | 274° |
| 2026-05-04 00:50 | 40.31600 | 115.98039 | 15074 ft | 390 kts | 274° |
| 2026-05-04 00:50 | 40.31588 | 115.94456 | 15599 ft | 393 kts | 274° |
| 2026-05-04 00:50 | 40.31575 | 115.90918 | 16081 ft | 396 kts | 274° |
| 2026-05-04 00:50 | 40.31562 | 115.87401 | 16563 ft | 399 kts | 274° |
| 2026-05-04 00:51 | 40.31547 | 115.83750 | 17045 ft | 402 kts | 274° |
| 2026-05-04 00:51 | 40.31522 | 115.80067 | 17499 ft | 406 kts | 272° |
| 2026-05-04 00:51 | 40.31005 | 115.76433 | 17869 ft | 419 kts | 252° |
| 2026-05-04 00:51 | 40.29483 | 115.73129 | 18305 ft | 431 kts | 232° |
| 2026-05-04 00:52 | 40.27142 | 115.70589 | 18762 ft | 439 kts | 214° |
| 2026-05-04 00:52 | 40.24542 | 115.68562 | 19250 ft | 441 kts | 213° |
| 2026-05-04 00:52 | 40.21898 | 115.66470 | 19679 ft | 444 kts | 214° |
| 2026-05-04 00:52 | 40.19234 | 115.64330 | 20105 ft | 447 kts | 214° |
| 2026-05-04 00:53 | 40.16612 | 115.62206 | 20524 ft | 449 kts | 215° |
| 2026-05-04 00:53 | 40.13935 | 115.60029 | 20964 ft | 451 kts | 215° |
| 2026-05-04 00:53 | 40.11264 | 115.57854 | 21394 ft | 454 kts | 215° |
| 2026-05-04 00:53 | 40.08579 | 115.55669 | 21823 ft | 456 kts | 215° |
| 2026-05-04 00:54 | 40.05902 | 115.53494 | 22263 ft | 457 kts | 215° |
| 2026-05-04 00:54 | 40.03205 | 115.51279 | 22690 ft | 458 kts | 217° |
| 2026-05-04 00:54 | 40.00866 | 115.48491 | 22996 ft | 453 kts | 237° |
| 2026-05-04 00:54 | 39.99403 | 115.44942 | 23389 ft | 445 kts | 255° |
| 2026-05-04 00:55 | 39.98825 | 115.41041 | 23771 ft | 438 kts | 272° |
| 2026-05-04 00:55 | 39.99000 | 115.37064 | 24150 ft | 436 kts | 278° |
| 2026-05-04 00:55 | 39.99248 | 115.33115 | 24515 ft | 439 kts | 277° |
| 2026-05-04 00:55 | 39.99476 | 115.29145 | 24856 ft | 442 kts | 277° |
| 2026-05-04 00:56 | 39.99692 | 115.25134 | 25216 ft | 445 kts | 277° |
| 2026-05-04 00:56 | 39.99904 | 115.21092 | 25568 ft | 447 kts | 277° |
| 2026-05-04 00:56 | 40.00112 | 115.17058 | 25898 ft | 449 kts | 277° |
| 2026-05-04 00:56 | 40.00319 | 115.12992 | 26268 ft | 450 kts | 276° |
| 2026-05-04 00:57 | 40.00523 | 115.08935 | 26631 ft | 451 kts | 276° |
| 2026-05-04 00:57 | 40.00726 | 115.04847 | 26957 ft | 453 kts | 276° |
| 2026-05-04 00:57 | 40.00930 | 115.00714 | 27280 ft | 454 kts | 276° |
| 2026-05-04 00:57 | 40.01132 | 114.96568 | 27600 ft | 456 kts | 276° |
| 2026-05-04 00:58 | 40.01334 | 114.92409 | 27907 ft | 458 kts | 276° |
| 2026-05-04 00:58 | 40.01535 | 114.88245 | 28197 ft | 460 kts | 276° |
| 2026-05-04 00:58 | 40.01732 | 114.84121 | 28493 ft | 461 kts | 276° |
| 2026-05-04 00:58 | 40.01930 | 114.79927 | 28905 ft | 460 kts | 276° |
| 2026-05-04 00:59 | 40.02123 | 114.75799 | 29350 ft | 457 kts | 276° |
| 2026-05-04 00:59 | 40.02314 | 114.71704 | 29766 ft | 456 kts | 276° |
| 2026-05-04 00:59 | 40.02509 | 114.67503 | 30175 ft | 454 kts | 277° |
| 2026-05-04 00:59 | 40.02698 | 114.63404 | 30521 ft | 453 kts | 276° |
| 2026-05-04 01:00 | 40.02887 | 114.59277 | 30779 ft | 455 kts | 276° |
| 2026-05-04 01:00 | 40.03075 | 114.55135 | 31005 ft | 456 kts | 277° |
| 2026-05-04 01:00 | 40.03262 | 114.50980 | 31257 ft | 457 kts | 277° |
| 2026-05-04 01:00 | 40.03445 | 114.46867 | 31493 ft | 457 kts | 277° |
| 2026-05-04 01:01 | 40.03627 | 114.42729 | 31740 ft | 457 kts | 277° |
| 2026-05-04 01:01 | 40.03808 | 114.38568 | 31978 ft | 458 kts | 277° |
| 2026-05-04 01:01 | 40.03989 | 114.34393 | 32040 ft | 459 kts | 276° |
| 2026-05-04 01:02 | 40.04402 | 114.26063 | 32043 ft | 458 kts | 279° |
| 2026-05-04 01:02 | 40.05464 | 114.17810 | 32036 ft | 455 kts | 286° |
| 2026-05-04 01:03 | 40.07290 | 114.09907 | 32029 ft | 452 kts | 293° |
| 2026-05-04 01:03 | 40.09829 | 114.02439 | 32028 ft | 450 kts | 300° |
| 2026-05-04 01:04 | 40.12854 | 113.95136 | 32027 ft | 451 kts | 300° |
| 2026-05-04 01:04 | 40.15770 | 113.87921 | 32031 ft | 451 kts | 300° |
| 2026-05-04 01:05 | 40.18701 | 113.80657 | 32033 ft | 450 kts | 300° |
| 2026-05-04 01:05 | 40.21634 | 113.73382 | 32035 ft | 451 kts | 300° |
| 2026-05-04 01:06 | 40.24579 | 113.66058 | 32039 ft | 451 kts | 300° |
| 2026-05-04 01:06 | 40.27537 | 113.58781 | 32052 ft | 451 kts | 300° |
| 2026-05-04 01:07 | 40.30481 | 113.51575 | 32067 ft | 450 kts | 301° |
| 2026-05-04 01:07 | 40.33430 | 113.44329 | 32067 ft | 450 kts | 301° |
| 2026-05-04 01:08 | 40.36371 | 113.37077 | 32067 ft | 450 kts | 301° |
| 2026-05-04 01:08 | 40.39328 | 113.29763 | 32058 ft | 451 kts | 300° |
| 2026-05-04 01:09 | 40.42252 | 113.22509 | 32053 ft | 451 kts | 300° |
| 2026-05-04 01:09 | 40.45170 | 113.15249 | 32048 ft | 451 kts | 300° |
| 2026-05-04 01:10 | 40.48099 | 113.07950 | 32045 ft | 451 kts | 300° |
| 2026-05-04 01:10 | 40.51006 | 113.00643 | 32052 ft | 451 kts | 300° |
| 2026-05-04 01:11 | 40.53898 | 112.93344 | 32059 ft | 451 kts | 299° |
| 2026-05-04 01:11 | 40.56480 | 112.85815 | 32058 ft | 453 kts | 294° |
| 2026-05-04 01:12 | 40.58472 | 112.77833 | 32054 ft | 457 kts | 288° |
| 2026-05-04 01:12 | 40.59739 | 112.69653 | 32059 ft | 460 kts | 282° |
| 2026-05-04 01:13 | 40.60373 | 112.61224 | 32063 ft | 462 kts | 278° |
| 2026-05-04 01:13 | 40.60849 | 112.52863 | 32061 ft | 461 kts | 278° |
| 2026-05-04 01:14 | 40.61187 | 112.44384 | 32058 ft | 462 kts | 276° |
| 2026-05-04 01:14 | 40.61398 | 112.35889 | 32049 ft | 462 kts | 276° |
| 2026-05-04 01:15 | 40.61596 | 112.27457 | 32061 ft | 462 kts | 275° |
| 2026-05-04 01:15 | 40.61792 | 112.18948 | 32060 ft | 462 kts | 275° |
| 2026-05-04 01:16 | 40.61980 | 112.10491 | 32061 ft | 462 kts | 275° |
| 2026-05-04 01:16 | 40.62165 | 112.02000 | 32059 ft | 463 kts | 275° |
| 2026-05-04 01:17 | 40.62358 | 111.93360 | 32052 ft | 463 kts | 275° |
| 2026-05-04 01:17 | 40.62509 | 111.84808 | 32048 ft | 463 kts | 275° |
| 2026-05-04 01:18 | 40.62673 | 111.76302 | 32047 ft | 462 kts | 275° |
| 2026-05-04 01:18 | 40.62831 | 111.67841 | 32047 ft | 462 kts | 275° |
| 2026-05-04 01:19 | 40.62983 | 111.59355 | 32045 ft | 462 kts | 275° |
| 2026-05-04 01:19 | 40.63127 | 111.50883 | 32047 ft | 462 kts | 275° |
| 2026-05-04 01:20 | 40.63262 | 111.42489 | 32044 ft | 462 kts | 275° |
| 2026-05-04 01:20 | 40.63392 | 111.34081 | 32039 ft | 462 kts | 274° |
| 2026-05-04 01:21 | 40.63517 | 111.25481 | 32039 ft | 462 kts | 274° |
| 2026-05-04 01:21 | 40.63637 | 111.16952 | 32040 ft | 463 kts | 274° |
| 2026-05-04 01:22 | 40.63754 | 111.08471 | 32043 ft | 463 kts | 274° |
| 2026-05-04 01:22 | 40.63862 | 111.00047 | 32053 ft | 462 kts | 274° |
| 2026-05-04 01:23 | 40.63963 | 110.91581 | 32066 ft | 462 kts | 274° |
| 2026-05-04 01:23 | 40.64057 | 110.83155 | 32066 ft | 462 kts | 274° |
| 2026-05-04 01:24 | 40.64146 | 110.74674 | 32068 ft | 463 kts | 274° |
| 2026-05-04 01:24 | 40.64228 | 110.66179 | 32062 ft | 463 kts | 274° |
| 2026-05-04 01:25 | 40.64303 | 110.57730 | 32061 ft | 463 kts | 274° |
| 2026-05-04 01:25 | 40.64370 | 110.49271 | 32060 ft | 463 kts | 274° |
| 2026-05-04 01:26 | 40.64436 | 110.40769 | 32056 ft | 464 kts | 274° |
| 2026-05-04 01:26 | 40.64498 | 110.32278 | 32055 ft | 464 kts | 274° |
| 2026-05-04 01:27 | 40.64554 | 110.23714 | 32046 ft | 464 kts | 274° |
| 2026-05-04 01:27 | 40.64600 | 110.15163 | 32043 ft | 465 kts | 274° |
| 2026-05-04 01:28 | 40.64639 | 110.06662 | 32043 ft | 464 kts | 274° |
| 2026-05-04 01:28 | 40.64512 | 109.98128 | 32042 ft | 466 kts | 270° |
| 2026-05-04 01:29 | 40.63808 | 109.89606 | 32038 ft | 468 kts | 266° |
| 2026-05-04 01:29 | 40.62964 | 109.81134 | 32040 ft | 468 kts | 266° |
| 2026-05-04 01:30 | 40.62113 | 109.72658 | 32036 ft | 469 kts | 266° |
| 2026-05-04 01:30 | 40.61253 | 109.64156 | 32043 ft | 470 kts | 266° |
| 2026-05-04 01:31 | 40.60384 | 109.55635 | 32049 ft | 470 kts | 266° |
| 2026-05-04 01:31 | 40.59504 | 109.47047 | 32049 ft | 470 kts | 266° |
| 2026-05-04 01:32 | 40.58622 | 109.38512 | 32048 ft | 469 kts | 266° |
| 2026-05-04 01:32 | 40.57732 | 109.29957 | 32043 ft | 470 kts | 265° |
| 2026-05-04 01:33 | 40.56840 | 109.21432 | 32305 ft | 472 kts | 265° |
| 2026-05-04 01:33 | 40.56384 | 109.17117 | 32690 ft | 468 kts | 265° |
| 2026-05-04 01:33 | 40.55936 | 109.12898 | 32991 ft | 467 kts | 265° |
| 2026-05-04 01:34 | 40.55032 | 109.04388 | 33031 ft | 468 kts | 265° |
| 2026-05-04 01:34 | 40.54122 | 108.95895 | 33036 ft | 468 kts | 265° |
| 2026-05-04 01:35 | 40.53209 | 108.87423 | 33031 ft | 468 kts | 265° |
| 2026-05-04 01:35 | 40.52291 | 108.78975 | 33029 ft | 468 kts | 265° |
| 2026-05-04 01:36 | 40.51371 | 108.70552 | 33022 ft | 468 kts | 265° |
| 2026-05-04 01:36 | 40.50441 | 108.62125 | 33025 ft | 467 kts | 265° |
| 2026-05-04 01:37 | 40.49501 | 108.53648 | 33028 ft | 468 kts | 265° |
| 2026-05-04 01:37 | 40.48564 | 108.45258 | 33028 ft | 468 kts | 265° |
| 2026-05-04 01:38 | 40.47615 | 108.36822 | 33030 ft | 469 kts | 265° |
| 2026-05-04 01:38 | 40.46658 | 108.28358 | 33023 ft | 469 kts | 265° |
| 2026-05-04 01:39 | 40.45689 | 108.19870 | 33020 ft | 469 kts | 265° |
| 2026-05-04 01:39 | 40.44713 | 108.11368 | 33023 ft | 469 kts | 265° |
| 2026-05-04 01:40 | 40.43739 | 108.02950 | 33022 ft | 469 kts | 265° |
| 2026-05-04 01:40 | 40.42739 | 107.94362 | 33022 ft | 469 kts | 265° |
| 2026-05-04 01:41 | 40.41757 | 107.85958 | 33021 ft | 470 kts | 265° |
| 2026-05-04 01:41 | 40.40760 | 107.77498 | 33019 ft | 470 kts | 264° |
| 2026-05-04 01:42 | 40.39748 | 107.68999 | 33014 ft | 470 kts | 264° |
| 2026-05-04 01:42 | 40.38742 | 107.60583 | 33011 ft | 470 kts | 264° |
| 2026-05-04 01:43 | 40.37727 | 107.52151 | 33012 ft | 470 kts | 264° |
| 2026-05-04 01:43 | 40.36703 | 107.43703 | 33015 ft | 469 kts | 264° |
| 2026-05-04 01:44 | 40.35673 | 107.35262 | 33014 ft | 469 kts | 264° |
| 2026-05-04 01:44 | 40.34637 | 107.26821 | 33020 ft | 470 kts | 263° |
| 2026-05-04 01:45 | 40.33597 | 107.18423 | 33023 ft | 470 kts | 263° |
| 2026-05-04 01:45 | 40.32205 | 107.05568 | 33022 ft | 468 kts | 269° |
| 2026-05-04 01:46 | 40.32320 | 106.97109 | 33020 ft | 465 kts | 278° |
| 2026-05-04 01:46 | 40.33451 | 106.88770 | 33018 ft | 462 kts | 287° |
| 2026-05-04 01:47 | 40.35546 | 106.80698 | 33013 ft | 460 kts | 293° |
| 2026-05-04 01:47 | 40.37910 | 106.72881 | 33007 ft | 460 kts | 293° |
| 2026-05-04 01:48 | 40.40282 | 106.65038 | 33003 ft | 460 kts | 293° |
| 2026-05-04 01:48 | 40.42633 | 106.57226 | 33001 ft | 461 kts | 293° |
| 2026-05-04 01:49 | 40.44976 | 106.49404 | 33002 ft | 461 kts | 293° |
| 2026-05-04 01:49 | 40.47298 | 106.41626 | 33007 ft | 461 kts | 293° |
| 2026-05-04 01:50 | 40.49645 | 106.33738 | 33011 ft | 461 kts | 292° |
| 2026-05-04 01:50 | 40.51979 | 106.25867 | 33019 ft | 461 kts | 292° |
| 2026-05-04 01:51 | 40.54316 | 106.17968 | 33025 ft | 462 kts | 292° |
| 2026-05-04 01:51 | 40.56624 | 106.10140 | 33032 ft | 462 kts | 292° |
| 2026-05-04 01:52 | 40.58947 | 106.02238 | 33035 ft | 462 kts | 292° |
| 2026-05-04 01:52 | 40.61269 | 105.94323 | 33039 ft | 463 kts | 292° |
| 2026-05-04 01:53 | 40.63577 | 105.86420 | 33038 ft | 463 kts | 292° |
| 2026-05-04 01:53 | 40.65871 | 105.78544 | 33040 ft | 463 kts | 292° |
| 2026-05-04 01:54 | 40.68182 | 105.70587 | 33040 ft | 462 kts | 292° |
| 2026-05-04 01:54 | 40.70469 | 105.62689 | 33038 ft | 462 kts | 292° |
| 2026-05-04 01:55 | 40.72767 | 105.54730 | 33035 ft | 462 kts | 292° |
| 2026-05-04 01:55 | 40.75048 | 105.46807 | 33028 ft | 461 kts | 292° |
| 2026-05-04 01:56 | 40.77324 | 105.38873 | 33022 ft | 461 kts | 292° |
| 2026-05-04 01:56 | 40.79576 | 105.30996 | 33016 ft | 461 kts | 291° |
| 2026-05-04 01:57 | 40.81841 | 105.23054 | 33016 ft | 461 kts | 291° |
| 2026-05-04 01:57 | 40.84089 | 105.15149 | 33017 ft | 461 kts | 291° |
| 2026-05-04 01:58 | 40.86340 | 105.07207 | 33020 ft | 461 kts | 291° |
| 2026-05-04 01:58 | 40.88595 | 104.99222 | 33024 ft | 461 kts | 291° |
| 2026-05-04 01:59 | 40.90850 | 104.91215 | 33025 ft | 460 kts | 291° |
| 2026-05-04 01:59 | 40.93079 | 104.83276 | 33027 ft | 460 kts | 291° |
| 2026-05-04 02:00 | 40.95313 | 104.75287 | 33025 ft | 460 kts | 291° |
| 2026-05-04 02:00 | 40.97530 | 104.67333 | 33024 ft | 460 kts | 291° |
| 2026-05-04 02:01 | 40.99741 | 104.59373 | 33027 ft | 460 kts | 291° |
| 2026-05-04 02:01 | 41.01938 | 104.51437 | 33019 ft | 460 kts | 291° |
| 2026-05-04 02:02 | 41.04172 | 104.43480 | 33022 ft | 460 kts | 292° |
| 2026-05-04 02:02 | 41.06480 | 104.35573 | 33012 ft | 460 kts | 292° |
| 2026-05-04 02:03 | 41.08802 | 104.27583 | 33001 ft | 460 kts | 292° |
| 2026-05-04 02:03 | 41.11108 | 104.19594 | 32994 ft | 461 kts | 292° |
| 2026-05-04 02:04 | 41.13399 | 104.11622 | 32987 ft | 461 kts | 292° |
| 2026-05-04 02:04 | 41.15702 | 104.03582 | 32981 ft | 460 kts | 292° |
| 2026-05-04 02:05 | 41.17973 | 103.95624 | 32969 ft | 460 kts | 292° |
| 2026-05-04 02:05 | 41.20242 | 103.87651 | 32964 ft | 460 kts | 292° |
| 2026-05-04 02:06 | 41.22514 | 103.79636 | 32964 ft | 460 kts | 292° |
| 2026-05-04 02:06 | 41.24785 | 103.71600 | 32965 ft | 460 kts | 292° |
| 2026-05-04 02:07 | 41.27030 | 103.63635 | 32961 ft | 461 kts | 292° |
| 2026-05-04 02:07 | 41.29285 | 103.55602 | 32963 ft | 460 kts | 292° |
| 2026-05-04 02:08 | 41.31519 | 103.47631 | 32965 ft | 461 kts | 292° |
| 2026-05-04 02:08 | 41.33750 | 103.39638 | 32969 ft | 461 kts | 292° |
| 2026-05-04 02:09 | 41.35981 | 103.31621 | 32961 ft | 461 kts | 291° |
| 2026-05-04 02:09 | 41.38191 | 103.23650 | 32967 ft | 461 kts | 291° |
| 2026-05-04 02:10 | 41.40421 | 103.15582 | 32959 ft | 461 kts | 291° |
| 2026-05-04 02:10 | 41.42635 | 103.07548 | 32961 ft | 461 kts | 292° |
| 2026-05-04 02:11 | 41.44829 | 102.99552 | 32959 ft | 461 kts | 292° |
| 2026-05-04 02:11 | 41.47029 | 102.91510 | 32956 ft | 461 kts | 292° |
| 2026-05-04 02:12 | 41.49224 | 102.83457 | 32955 ft | 462 kts | 292° |
| 2026-05-04 02:12 | 41.51452 | 102.75504 | 32955 ft | 462 kts | 293° |
| 2026-05-04 02:13 | 41.53783 | 102.67475 | 32945 ft | 462 kts | 293° |
| 2026-05-04 02:13 | 41.56080 | 102.59518 | 32945 ft | 462 kts | 293° |
| 2026-05-04 02:14 | 41.58374 | 102.51516 | 32947 ft | 462 kts | 293° |
| 2026-05-04 02:14 | 41.60661 | 102.43499 | 32941 ft | 462 kts | 293° |
| 2026-05-04 02:15 | 41.62934 | 102.35509 | 32940 ft | 462 kts | 293° |
| 2026-05-04 02:15 | 41.65239 | 102.27374 | 32935 ft | 462 kts | 292° |
| 2026-05-04 02:16 | 41.67527 | 102.19276 | 32935 ft | 462 kts | 292° |
| 2026-05-04 02:16 | 41.69783 | 102.11260 | 32921 ft | 462 kts | 293° |
| 2026-05-04 02:17 | 41.72049 | 102.03184 | 32915 ft | 462 kts | 293° |
| 2026-05-04 02:17 | 41.74300 | 101.95142 | 32912 ft | 462 kts | 293° |
| 2026-05-04 02:18 | 41.76542 | 101.87103 | 32909 ft | 462 kts | 293° |
| 2026-05-04 02:18 | 41.78783 | 101.79042 | 32913 ft | 462 kts | 293° |
| 2026-05-04 02:19 | 41.81027 | 101.70944 | 32916 ft | 462 kts | 292° |
| 2026-05-04 02:19 | 41.83247 | 101.62902 | 32919 ft | 461 kts | 292° |
| 2026-05-04 02:20 | 41.85474 | 101.54814 | 32918 ft | 461 kts | 293° |
| 2026-05-04 02:20 | 41.87692 | 101.46725 | 32912 ft | 461 kts | 292° |
| 2026-05-04 02:21 | 41.89901 | 101.38646 | 32911 ft | 460 kts | 292° |
| 2026-05-04 02:21 | 41.92097 | 101.30575 | 32913 ft | 460 kts | 292° |
| 2026-05-04 02:22 | 41.94293 | 101.22479 | 32917 ft | 460 kts | 292° |
| 2026-05-04 02:22 | 41.96378 | 101.14309 | 32916 ft | 462 kts | 288° |
| 2026-05-04 02:23 | 41.97890 | 101.05803 | 32911 ft | 464 kts | 283° |
| 2026-05-04 02:23 | 41.98733 | 100.97197 | 32911 ft | 466 kts | 277° |
| 2026-05-04 02:24 | 41.98924 | 100.88432 | 32911 ft | 467 kts | 272° |
| 2026-05-04 02:24 | 41.98872 | 100.79643 | 32910 ft | 467 kts | 272° |
| 2026-05-04 02:25 | 41.98811 | 100.70976 | 32907 ft | 466 kts | 272° |
| 2026-05-04 02:25 | 41.98747 | 100.62214 | 32906 ft | 466 kts | 272° |
| 2026-05-04 02:26 | 41.98678 | 100.53540 | 32907 ft | 466 kts | 272° |
| 2026-05-04 02:26 | 41.98602 | 100.44783 | 32905 ft | 466 kts | 272° |
| 2026-05-04 02:27 | 41.98521 | 100.36083 | 32907 ft | 466 kts | 272° |
| 2026-05-04 02:27 | 41.98432 | 100.27327 | 32905 ft | 466 kts | 271° |
| 2026-05-04 02:28 | 41.98337 | 100.18600 | 32902 ft | 466 kts | 271° |
| 2026-05-04 02:28 | 41.98236 | 100.09916 | 32901 ft | 465 kts | 272° |
| 2026-05-04 02:29 | 41.98128 | 100.01201 | 32904 ft | 466 kts | 271° |
| 2026-05-04 02:29 | 41.98015 | 99.92535 | 32905 ft | 466 kts | 271° |
| 2026-05-04 02:30 | 41.97893 | 99.83781 | 32908 ft | 466 kts | 271° |
| 2026-05-04 02:30 | 41.97766 | 99.75118 | 32910 ft | 466 kts | 271° |
| 2026-05-04 02:31 | 41.97632 | 99.66386 | 32912 ft | 466 kts | 271° |
| 2026-05-04 02:31 | 41.97493 | 99.57752 | 32920 ft | 465 kts | 271° |
| 2026-05-04 02:32 | 41.97342 | 99.48927 | 32929 ft | 465 kts | 271° |
| 2026-05-04 02:32 | 41.97190 | 99.40292 | 32939 ft | 464 kts | 271° |
| 2026-05-04 02:33 | 41.97030 | 99.31607 | 32951 ft | 464 kts | 271° |
| 2026-05-04 02:33 | 41.96862 | 99.22904 | 32966 ft | 465 kts | 271° |
| 2026-05-04 02:34 | 41.96689 | 99.14200 | 32973 ft | 464 kts | 271° |
| 2026-05-04 02:34 | 41.96508 | 99.05479 | 32985 ft | 463 kts | 271° |
| 2026-05-04 02:35 | 41.96321 | 98.96765 | 32992 ft | 464 kts | 271° |
| 2026-05-04 02:35 | 41.96128 | 98.88103 | 33100 ft | 464 kts | 271° |
| 2026-05-04 02:36 | 41.95927 | 98.79420 | 33255 ft | 463 kts | 271° |
| 2026-05-04 02:36 | 41.95723 | 98.70757 | 33413 ft | 463 kts | 271° |
| 2026-05-04 02:37 | 41.95512 | 98.62161 | 33581 ft | 462 kts | 271° |
| 2026-05-04 02:37 | 41.95295 | 98.53541 | 33744 ft | 461 kts | 271° |
| 2026-05-04 02:38 | 41.95072 | 98.44990 | 33899 ft | 460 kts | 271° |
| 2026-05-04 02:38 | 41.94843 | 98.36389 | 34008 ft | 460 kts | 271° |
| 2026-05-04 02:39 | 41.94609 | 98.27863 | 34019 ft | 461 kts | 270° |
| 2026-05-04 02:39 | 41.94368 | 98.19260 | 34020 ft | 462 kts | 270° |
| 2026-05-04 02:40 | 41.94117 | 98.10626 | 34022 ft | 462 kts | 270° |
| 2026-05-04 02:40 | 41.93861 | 98.02031 | 34031 ft | 462 kts | 270° |
| 2026-05-04 02:41 | 41.93598 | 97.93433 | 34031 ft | 461 kts | 271° |
| 2026-05-04 02:41 | 41.93332 | 97.84905 | 34035 ft | 460 kts | 271° |
| 2026-05-04 02:42 | 41.93059 | 97.76331 | 34038 ft | 459 kts | 271° |
| 2026-05-04 02:42 | 41.92782 | 97.67813 | 34037 ft | 458 kts | 270° |
| 2026-05-04 02:43 | 41.92497 | 97.59280 | 34033 ft | 459 kts | 270° |
| 2026-05-04 02:43 | 41.92204 | 97.50751 | 34037 ft | 459 kts | 271° |
| 2026-05-04 02:44 | 41.91905 | 97.42216 | 34043 ft | 458 kts | 270° |
| 2026-05-04 02:44 | 41.91600 | 97.33682 | 34060 ft | 457 kts | 270° |
| 2026-05-04 02:45 | 41.91294 | 97.25243 | 34065 ft | 456 kts | 270° |
| 2026-05-04 02:45 | 41.90980 | 97.16767 | 34075 ft | 455 kts | 270° |
| 2026-05-04 02:46 | 41.90660 | 97.08328 | 34077 ft | 454 kts | 270° |
| 2026-05-04 02:46 | 41.90333 | 96.99882 | 34077 ft | 453 kts | 270° |
| 2026-05-04 02:47 | 41.90000 | 96.91470 | 34084 ft | 454 kts | 270° |
| 2026-05-04 02:47 | 41.89661 | 96.83031 | 34087 ft | 454 kts | 270° |
| 2026-05-04 02:48 | 41.89318 | 96.74602 | 34090 ft | 454 kts | 270° |
| 2026-05-04 02:48 | 41.88967 | 96.66161 | 34099 ft | 453 kts | 270° |
| 2026-05-04 02:49 | 41.88611 | 96.57776 | 34109 ft | 452 kts | 270° |
| 2026-05-04 02:49 | 41.88248 | 96.49371 | 34112 ft | 451 kts | 270° |
| 2026-05-04 02:50 | 41.87881 | 96.41029 | 34117 ft | 450 kts | 270° |
| 2026-05-04 02:50 | 41.87506 | 96.32675 | 34129 ft | 449 kts | 270° |
| 2026-05-04 02:51 | 41.87152 | 96.24316 | 34125 ft | 449 kts | 271° |
| 2026-05-04 02:51 | 41.87086 | 96.15967 | 34149 ft | 447 kts | 272° |
| 2026-05-04 02:52 | 41.87044 | 96.07655 | 34142 ft | 447 kts | 272° |
| 2026-05-04 02:52 | 41.86993 | 95.99356 | 34140 ft | 447 kts | 273° |
| 2026-05-04 02:53 | 41.86936 | 95.91080 | 34157 ft | 446 kts | 273° |
| 2026-05-04 02:53 | 41.86871 | 95.82801 | 34143 ft | 445 kts | 273° |
| 2026-05-04 02:54 | 41.86801 | 95.74545 | 34127 ft | 444 kts | 272° |
| 2026-05-04 02:54 | 41.86724 | 95.66290 | 34112 ft | 444 kts | 272° |
| 2026-05-04 02:55 | 41.86597 | 95.53893 | 34088 ft | 443 kts | 272° |
| 2026-05-04 02:56 | 41.86504 | 95.45689 | 34084 ft | 443 kts | 272° |
| 2026-05-04 02:56 | 41.86405 | 95.37431 | 34071 ft | 443 kts | 272° |
| 2026-05-04 02:57 | 41.86672 | 95.29225 | 34065 ft | 439 kts | 281° |
| 2026-05-04 02:57 | 41.88129 | 95.21372 | 34063 ft | 435 kts | 291° |
| 2026-05-04 02:58 | 41.90716 | 95.14076 | 34041 ft | 434 kts | 301° |
| 2026-05-04 02:58 | 41.94311 | 95.07601 | 34030 ft | 433 kts | 310° |
| 2026-05-04 02:59 | 41.98258 | 95.01527 | 34019 ft | 434 kts | 310° |
| 2026-05-04 02:59 | 42.02253 | 94.95416 | 34013 ft | 433 kts | 310° |
| 2026-05-04 03:00 | 42.06221 | 94.89333 | 34001 ft | 433 kts | 310° |
| 2026-05-04 03:00 | 42.10190 | 94.83234 | 34007 ft | 434 kts | 310° |
| 2026-05-04 03:01 | 42.14147 | 94.77138 | 33989 ft | 433 kts | 310° |
| 2026-05-04 03:01 | 42.18089 | 94.71059 | 33984 ft | 432 kts | 310° |
| 2026-05-04 03:02 | 42.22045 | 94.64942 | 33979 ft | 430 kts | 310° |
| 2026-05-04 03:02 | 42.25942 | 94.58903 | 33975 ft | 431 kts | 310° |
| 2026-05-04 03:03 | 42.29883 | 94.52787 | 33958 ft | 432 kts | 310° |
| 2026-05-04 03:03 | 42.33828 | 94.46648 | 33966 ft | 431 kts | 309° |
| 2026-05-04 03:04 | 42.37733 | 94.40561 | 33965 ft | 431 kts | 309° |
| 2026-05-04 03:04 | 42.41670 | 94.34409 | 33969 ft | 431 kts | 309° |
| 2026-05-04 03:05 | 42.45575 | 94.28294 | 33964 ft | 431 kts | 309° |
| 2026-05-04 03:05 | 42.49489 | 94.22151 | 33959 ft | 431 kts | 309° |
| 2026-05-04 03:06 | 42.53371 | 94.16048 | 33962 ft | 430 kts | 309° |
| 2026-05-04 03:06 | 42.57283 | 94.09885 | 33960 ft | 430 kts | 309° |
| 2026-05-04 03:07 | 42.61171 | 94.03744 | 33953 ft | 430 kts | 309° |
| 2026-05-04 03:07 | 42.65049 | 93.97603 | 33951 ft | 429 kts | 309° |
| 2026-05-04 03:08 | 42.68924 | 93.91456 | 33973 ft | 429 kts | 309° |
| 2026-05-04 03:08 | 42.72795 | 93.85298 | 33963 ft | 430 kts | 309° |
| 2026-05-04 03:09 | 42.76651 | 93.79156 | 33966 ft | 430 kts | 309° |
| 2026-05-04 03:09 | 42.80323 | 93.72762 | 33961 ft | 429 kts | 304° |
| 2026-05-04 03:10 | 42.83496 | 93.65913 | 33947 ft | 429 kts | 299° |
| 2026-05-04 03:10 | 42.86144 | 93.58670 | 33951 ft | 428 kts | 294° |
| 2026-05-04 03:11 | 42.88264 | 93.51093 | 33943 ft | 427 kts | 290° |
| 2026-05-04 03:11 | 42.90185 | 93.43448 | 33925 ft | 427 kts | 290° |
| 2026-05-04 03:12 | 42.92080 | 93.35833 | 33925 ft | 426 kts | 290° |
| 2026-05-04 03:12 | 42.93972 | 93.28194 | 33914 ft | 426 kts | 289° |
| 2026-05-04 03:13 | 42.95850 | 93.20594 | 33907 ft | 425 kts | 289° |
| 2026-05-04 03:13 | 42.97729 | 93.12956 | 33893 ft | 423 kts | 289° |
| 2026-05-04 03:14 | 42.99590 | 93.05368 | 33891 ft | 424 kts | 289° |
| 2026-05-04 03:14 | 43.01455 | 92.97733 | 33888 ft | 423 kts | 289° |
| 2026-05-04 03:15 | 43.03294 | 92.90189 | 33886 ft | 422 kts | 289° |
| 2026-05-04 03:15 | 43.05138 | 92.82594 | 33890 ft | 422 kts | 289° |
| 2026-05-04 03:16 | 43.06985 | 92.74966 | 33896 ft | 423 kts | 289° |
| 2026-05-04 03:16 | 43.08815 | 92.67374 | 33902 ft | 424 kts | 289° |
| 2026-05-04 03:17 | 43.10661 | 92.59695 | 33905 ft | 425 kts | 289° |
| 2026-05-04 03:17 | 43.12495 | 92.52036 | 33908 ft | 424 kts | 289° |
| 2026-05-04 03:18 | 43.14320 | 92.44392 | 33902 ft | 424 kts | 289° |
| 2026-05-04 03:18 | 43.16142 | 92.36742 | 33895 ft | 424 kts | 289° |
| 2026-05-04 03:19 | 43.17957 | 92.29082 | 33897 ft | 424 kts | 288° |
| 2026-05-04 03:19 | 43.19775 | 92.21383 | 33904 ft | 424 kts | 288° |
| 2026-05-04 03:20 | 43.21583 | 92.13709 | 33915 ft | 424 kts | 288° |
| 2026-05-04 03:20 | 43.23375 | 92.06068 | 33916 ft | 424 kts | 288° |
| 2026-05-04 03:21 | 43.25174 | 91.98373 | 33909 ft | 424 kts | 288° |
| 2026-05-04 03:21 | 43.26968 | 91.90687 | 33905 ft | 424 kts | 288° |
| 2026-05-04 03:22 | 43.28750 | 91.83023 | 33908 ft | 424 kts | 288° |
| 2026-05-04 03:22 | 43.30528 | 91.75338 | 33887 ft | 423 kts | 288° |
| 2026-05-04 03:23 | 43.32307 | 91.67616 | 33904 ft | 423 kts | 288° |
| 2026-05-04 03:23 | 43.34060 | 91.59982 | 33905 ft | 424 kts | 288° |
| 2026-05-04 03:24 | 43.35834 | 91.52247 | 33923 ft | 424 kts | 288° |
| 2026-05-04 03:24 | 43.37590 | 91.44551 | 33939 ft | 424 kts | 288° |
| 2026-05-04 03:25 | 43.39350 | 91.36815 | 33954 ft | 424 kts | 288° |
| 2026-05-04 03:25 | 43.41094 | 91.29115 | 33969 ft | 424 kts | 287° |
| 2026-05-04 03:26 | 43.42844 | 91.21367 | 33982 ft | 424 kts | 287° |
| 2026-05-04 03:26 | 43.44577 | 91.13660 | 34005 ft | 424 kts | 287° |
| 2026-05-04 03:27 | 43.46314 | 91.05913 | 34021 ft | 424 kts | 287° |
| 2026-05-04 03:27 | 43.48046 | 90.98168 | 34048 ft | 424 kts | 287° |
| 2026-05-04 03:28 | 43.49766 | 90.90440 | 34053 ft | 423 kts | 287° |
| 2026-05-04 03:28 | 43.51478 | 90.82720 | 34058 ft | 424 kts | 287° |
| 2026-05-04 03:29 | 43.53183 | 90.75001 | 34065 ft | 424 kts | 287° |
| 2026-05-04 03:29 | 43.54892 | 90.67239 | 34067 ft | 423 kts | 287° |
| 2026-05-04 03:30 | 43.56583 | 90.59534 | 34070 ft | 423 kts | 287° |
| 2026-05-04 03:30 | 43.58287 | 90.51736 | 34086 ft | 424 kts | 287° |
| 2026-05-04 03:31 | 43.59967 | 90.44019 | 34083 ft | 424 kts | 287° |
| 2026-05-04 03:31 | 43.61649 | 90.36257 | 34081 ft | 424 kts | 287° |
| 2026-05-04 03:32 | 43.63334 | 90.28452 | 34075 ft | 424 kts | 285° |
| 2026-05-04 03:32 | 43.65011 | 90.20645 | 34069 ft | 424 kts | 286° |
| 2026-05-04 03:33 | 43.66678 | 90.12865 | 34058 ft | 425 kts | 286° |
| 2026-05-04 03:33 | 43.68361 | 90.05103 | 34044 ft | 425 kts | 287° |
| 2026-05-04 03:34 | 43.70152 | 89.97324 | 34023 ft | 425 kts | 287° |
| 2026-05-04 03:34 | 43.71924 | 89.89583 | 34014 ft | 426 kts | 287° |
| 2026-05-04 03:35 | 43.73688 | 89.81812 | 34009 ft | 425 kts | 287° |
| 2026-05-04 03:35 | 43.75442 | 89.74033 | 33997 ft | 425 kts | 287° |
| 2026-05-04 03:36 | 43.77196 | 89.66227 | 33985 ft | 426 kts | 287° |
| 2026-05-04 03:36 | 43.78942 | 89.58417 | 33988 ft | 426 kts | 286° |
| 2026-05-04 03:37 | 43.80684 | 89.50618 | 33990 ft | 426 kts | 287° |
| 2026-05-04 03:37 | 43.82498 | 89.42815 | 33995 ft | 426 kts | 287° |
| 2026-05-04 03:38 | 43.84303 | 89.35066 | 33983 ft | 426 kts | 287° |
| 2026-05-04 03:38 | 43.86106 | 89.27254 | 33983 ft | 427 kts | 286° |
| 2026-05-04 03:39 | 43.87910 | 89.19392 | 33983 ft | 427 kts | 286° |
| 2026-05-04 03:39 | 43.89700 | 89.11568 | 33992 ft | 428 kts | 286° |
| 2026-05-04 03:40 | 43.91485 | 89.03722 | 33996 ft | 428 kts | 286° |
| 2026-05-04 03:40 | 43.93268 | 88.95856 | 34004 ft | 429 kts | 286° |
| 2026-05-04 03:41 | 43.95035 | 88.88020 | 34017 ft | 428 kts | 286° |
| 2026-05-04 03:41 | 43.96849 | 88.80145 | 34023 ft | 429 kts | 288° |
| 2026-05-04 03:42 | 43.98821 | 88.72403 | 34032 ft | 428 kts | 288° |
| 2026-05-04 03:42 | 44.00799 | 88.64634 | 34020 ft | 429 kts | 288° |
| 2026-05-04 03:43 | 44.02781 | 88.56812 | 34023 ft | 430 kts | 288° |
| 2026-05-04 03:43 | 44.04762 | 88.48954 | 34027 ft | 431 kts | 288° |
| 2026-05-04 03:44 | 44.06720 | 88.41164 | 34024 ft | 431 kts | 288° |
| 2026-05-04 03:44 | 44.08695 | 88.33280 | 34035 ft | 430 kts | 287° |
| 2026-05-04 03:45 | 44.10652 | 88.25420 | 34036 ft | 430 kts | 287° |
| 2026-05-04 03:45 | 44.12592 | 88.17600 | 34022 ft | 430 kts | 287° |
| 2026-05-04 03:46 | 44.14562 | 88.09753 | 33991 ft | 431 kts | 288° |
| 2026-05-04 03:46 | 44.16931 | 88.02049 | 33981 ft | 433 kts | 293° |
| 2026-05-04 03:47 | 44.19794 | 87.94675 | 33964 ft | 436 kts | 298° |
| 2026-05-04 03:47 | 44.23156 | 87.87649 | 33950 ft | 439 kts | 303° |
| 2026-05-04 03:48 | 44.26805 | 87.80814 | 33939 ft | 440 kts | 303° |
| 2026-05-04 03:48 | 44.30455 | 87.74033 | 33938 ft | 442 kts | 303° |
| 2026-05-04 03:49 | 44.34147 | 87.67187 | 33933 ft | 443 kts | 303° |
| 2026-05-04 03:49 | 44.37915 | 87.60357 | 33948 ft | 443 kts | 304° |
| 2026-05-04 03:50 | 44.41651 | 87.53574 | 33936 ft | 444 kts | 304° |
| 2026-05-04 03:50 | 44.45409 | 87.46722 | 33933 ft | 444 kts | 304° |
| 2026-05-04 03:51 | 44.49135 | 87.39894 | 33933 ft | 444 kts | 304° |
| 2026-05-04 03:51 | 44.52881 | 87.33009 | 33926 ft | 445 kts | 303° |
| 2026-05-04 03:52 | 44.56672 | 87.26127 | 33930 ft | 445 kts | 305° |
| 2026-05-04 03:52 | 44.60598 | 87.19414 | 33928 ft | 447 kts | 305° |
| 2026-05-04 03:53 | 44.64511 | 87.12701 | 33920 ft | 447 kts | 305° |
| 2026-05-04 03:53 | 44.68417 | 87.05943 | 33921 ft | 447 kts | 305° |
| 2026-05-04 03:54 | 44.72320 | 86.99165 | 33913 ft | 447 kts | 305° |
| 2026-05-04 03:54 | 44.76261 | 86.92348 | 34001 ft | 446 kts | 305° |
| 2026-05-04 03:55 | 44.80165 | 86.85574 | 34169 ft | 446 kts | 305° |
| 2026-05-04 03:55 | 44.84089 | 86.78739 | 34316 ft | 445 kts | 304° |
| 2026-05-04 03:56 | 44.87913 | 86.71966 | 34458 ft | 445 kts | 304° |
| 2026-05-04 03:56 | 44.91741 | 86.65138 | 34610 ft | 444 kts | 304° |
| 2026-05-04 03:57 | 44.95574 | 86.58285 | 34751 ft | 444 kts | 304° |
| 2026-05-04 03:57 | 44.99387 | 86.51450 | 34900 ft | 443 kts | 304° |
| 2026-05-04 03:58 | 45.05082 | 86.41214 | 35113 ft | 443 kts | 304° |
| 2026-05-04 03:58 | 45.08878 | 86.34367 | 35256 ft | 444 kts | 304° |
| 2026-05-04 03:59 | 45.12683 | 86.27491 | 35398 ft | 443 kts | 303° |
| 2026-05-04 03:59 | 45.16472 | 86.20626 | 35540 ft | 442 kts | 303° |
| 2026-05-04 04:00 | 45.20246 | 86.13773 | 35684 ft | 442 kts | 303° |
| 2026-05-04 04:00 | 45.24015 | 86.06911 | 35828 ft | 441 kts | 303° |
| 2026-05-04 04:01 | 45.27764 | 86.00067 | 35876 ft | 441 kts | 303° |
| 2026-05-04 04:01 | 45.31512 | 85.93211 | 35877 ft | 442 kts | 303° |
| 2026-05-04 04:02 | 45.35265 | 85.86327 | 35881 ft | 442 kts | 303° |
| 2026-05-04 04:02 | 45.39011 | 85.79440 | 35880 ft | 442 kts | 303° |
| 2026-05-04 04:03 | 45.42777 | 85.72499 | 35877 ft | 442 kts | 303° |
| 2026-05-04 04:03 | 45.46497 | 85.65626 | 35868 ft | 442 kts | 303° |
| 2026-05-04 04:04 | 45.50235 | 85.58701 | 35869 ft | 442 kts | 303° |
| 2026-05-04 04:04 | 45.53983 | 85.51742 | 35874 ft | 442 kts | 303° |
| 2026-05-04 04:05 | 45.57706 | 85.44809 | 35879 ft | 442 kts | 303° |
| 2026-05-04 04:05 | 45.61441 | 85.37833 | 35878 ft | 443 kts | 304° |
| 2026-05-04 04:06 | 45.65151 | 85.30883 | 35879 ft | 442 kts | 303° |
| 2026-05-04 04:06 | 45.68865 | 85.23914 | 35877 ft | 441 kts | 303° |
| 2026-05-04 04:07 | 45.72605 | 85.16938 | 35884 ft | 442 kts | 303° |
| 2026-05-04 04:07 | 45.76337 | 85.09989 | 35894 ft | 442 kts | 303° |
| 2026-05-04 04:08 | 45.80074 | 85.03004 | 35912 ft | 441 kts | 303° |
| 2026-05-04 04:08 | 45.83789 | 84.96032 | 35929 ft | 441 kts | 303° |
| 2026-05-04 04:09 | 45.87494 | 84.89063 | 35949 ft | 441 kts | 303° |
| 2026-05-04 04:09 | 45.91179 | 84.82111 | 35969 ft | 441 kts | 303° |
| 2026-05-04 04:10 | 45.94902 | 84.75069 | 35979 ft | 442 kts | 303° |
| 2026-05-04 04:10 | 45.98599 | 84.68059 | 36007 ft | 442 kts | 303° |
| 2026-05-04 04:11 | 46.02287 | 84.61047 | 36025 ft | 442 kts | 303° |
| 2026-05-04 04:11 | 46.05998 | 84.53972 | 36023 ft | 442 kts | 303° |
| 2026-05-04 04:12 | 46.09688 | 84.46918 | 36042 ft | 443 kts | 303° |
| 2026-05-04 04:12 | 46.13392 | 84.39822 | 36058 ft | 442 kts | 303° |
| 2026-05-04 04:13 | 46.17066 | 84.32761 | 36065 ft | 443 kts | 303° |
| 2026-05-04 04:13 | 46.20751 | 84.25658 | 36068 ft | 442 kts | 302° |
| 2026-05-04 04:14 | 46.24439 | 84.18532 | 36074 ft | 442 kts | 302° |
| 2026-05-04 04:14 | 46.28091 | 84.11460 | 36077 ft | 442 kts | 302° |
| 2026-05-04 04:15 | 46.31757 | 84.04329 | 36081 ft | 442 kts | 302° |
| 2026-05-04 04:15 | 46.35384 | 83.97240 | 36086 ft | 442 kts | 302° |
| 2026-05-04 04:16 | 46.39035 | 83.90079 | 36083 ft | 441 kts | 302° |
| 2026-05-04 04:16 | 46.42659 | 83.82953 | 36074 ft | 441 kts | 302° |
| 2026-05-04 04:17 | 46.46265 | 83.75838 | 36062 ft | 441 kts | 302° |
| 2026-05-04 04:17 | 46.49924 | 83.68603 | 36049 ft | 441 kts | 302° |
| 2026-05-04 04:18 | 46.53525 | 83.61459 | 36042 ft | 441 kts | 302° |
| 2026-05-04 04:18 | 46.57126 | 83.54298 | 36045 ft | 440 kts | 302° |
| 2026-05-04 04:19 | 46.60756 | 83.47054 | 36045 ft | 440 kts | 302° |
| 2026-05-04 04:19 | 46.64341 | 83.39888 | 36050 ft | 441 kts | 302° |
| 2026-05-04 04:20 | 46.67771 | 83.32478 | 36052 ft | 439 kts | 298° |
| 2026-05-04 04:20 | 46.71037 | 83.24943 | 36044 ft | 439 kts | 298° |
| 2026-05-04 04:21 | 46.74289 | 83.17396 | 36046 ft | 439 kts | 298° |
| 2026-05-04 04:21 | 46.77507 | 83.09904 | 36060 ft | 438 kts | 298° |
| 2026-05-04 04:22 | 46.80738 | 83.02373 | 36060 ft | 438 kts | 298° |
| 2026-05-04 04:22 | 46.83651 | 82.94546 | 36068 ft | 436 kts | 292° |
| 2026-05-04 04:23 | 46.85910 | 82.86354 | 36061 ft | 434 kts | 286° |
| 2026-05-04 04:23 | 46.87515 | 82.77853 | 36051 ft | 432 kts | 280° |
| 2026-05-04 04:24 | 46.88513 | 82.69280 | 36052 ft | 431 kts | 277° |
| 2026-05-04 04:24 | 46.89401 | 82.60604 | 36039 ft | 431 kts | 277° |
| 2026-05-04 04:25 | 46.90274 | 82.51986 | 36046 ft | 431 kts | 277° |
| 2026-05-04 04:25 | 46.91140 | 82.43356 | 36044 ft | 431 kts | 277° |
| 2026-05-04 04:26 | 46.91996 | 82.34750 | 36044 ft | 431 kts | 276° |
| 2026-05-04 04:26 | 46.92858 | 82.26017 | 36034 ft | 431 kts | 276° |
| 2026-05-04 04:27 | 46.93710 | 82.17308 | 36032 ft | 431 kts | 276° |
| 2026-05-04 04:27 | 46.94552 | 82.08625 | 36025 ft | 431 kts | 276° |
| 2026-05-04 04:28 | 46.95391 | 81.99895 | 36016 ft | 431 kts | 276° |
| 2026-05-04 04:28 | 46.96219 | 81.91216 | 36018 ft | 431 kts | 276° |
| 2026-05-04 04:29 | 46.97041 | 81.82556 | 36021 ft | 432 kts | 276° |
| 2026-05-04 04:29 | 46.97855 | 81.73833 | 36015 ft | 432 kts | 276° |
| 2026-05-04 04:30 | 46.98658 | 81.65112 | 36010 ft | 433 kts | 276° |
| 2026-05-04 04:30 | 46.99452 | 81.56406 | 36007 ft | 433 kts | 276° |
| 2026-05-04 04:31 | 47.00243 | 81.47676 | 36001 ft | 433 kts | 276° |
| 2026-05-04 04:31 | 47.01022 | 81.38979 | 35996 ft | 432 kts | 276° |
| 2026-05-04 04:32 | 47.01801 | 81.30214 | 35997 ft | 433 kts | 275° |
| 2026-05-04 04:32 | 47.02567 | 81.21481 | 35997 ft | 433 kts | 275° |
| 2026-05-04 04:33 | 47.03328 | 81.12743 | 35998 ft | 433 kts | 275° |
| 2026-05-04 04:33 | 47.04081 | 81.03999 | 35993 ft | 434 kts | 275° |
| 2026-05-04 04:34 | 47.04844 | 80.95186 | 35988 ft | 435 kts | 275° |
| 2026-05-04 04:34 | 47.05604 | 80.86344 | 36007 ft | 434 kts | 275° |
| 2026-05-04 04:35 | 47.06343 | 80.77598 | 35998 ft | 435 kts | 275° |
| 2026-05-04 04:35 | 47.07080 | 80.68794 | 36001 ft | 434 kts | 275° |
| 2026-05-04 04:36 | 47.07805 | 80.60026 | 35997 ft | 434 kts | 275° |
| 2026-05-04 04:36 | 47.08523 | 80.51257 | 36008 ft | 433 kts | 275° |
| 2026-05-04 04:37 | 47.09945 | 80.33628 | 36011 ft | 434 kts | 275° |
| 2026-05-04 04:38 | 47.10643 | 80.24834 | 36026 ft | 434 kts | 275° |
| 2026-05-04 04:38 | 47.11338 | 80.15998 | 36038 ft | 434 kts | 275° |
| 2026-05-04 04:39 | 47.12017 | 80.07262 | 36041 ft | 434 kts | 275° |
| 2026-05-04 04:39 | 47.12693 | 79.98451 | 36055 ft | 434 kts | 275° |
| 2026-05-04 04:40 | 47.13356 | 79.89716 | 36063 ft | 433 kts | 275° |
| 2026-05-04 04:40 | 47.14035 | 79.80926 | 36060 ft | 433 kts | 275° |
| 2026-05-04 04:41 | 47.14725 | 79.72124 | 36067 ft | 433 kts | 275° |
| 2026-05-04 04:41 | 47.15398 | 79.63361 | 36063 ft | 433 kts | 275° |
| 2026-05-04 04:42 | 47.16064 | 79.54584 | 36068 ft | 433 kts | 275° |
| 2026-05-04 04:42 | 47.16721 | 79.45785 | 36076 ft | 433 kts | 275° |
| 2026-05-04 04:43 | 47.17371 | 79.37004 | 36081 ft | 434 kts | 275° |
| 2026-05-04 04:43 | 47.18015 | 79.28159 | 36075 ft | 434 kts | 274° |
| 2026-05-04 04:44 | 47.18650 | 79.19353 | 36080 ft | 434 kts | 274° |
| 2026-05-04 04:44 | 47.19276 | 79.10605 | 36082 ft | 434 kts | 274° |
| 2026-05-04 04:45 | 47.19895 | 79.01736 | 36099 ft | 434 kts | 274° |
| 2026-05-04 04:47 | 47.21969 | 78.70922 | 36096 ft | 434 kts | 274° |
| 2026-05-04 04:47 | 47.22548 | 78.62077 | 36094 ft | 435 kts | 274° |
| 2026-05-04 04:48 | 47.23121 | 78.53200 | 36093 ft | 435 kts | 274° |
| 2026-05-04 04:49 | 47.24522 | 78.31032 | 36108 ft | 436 kts | 274° |
| 2026-05-04 04:49 | 47.25069 | 78.22197 | 36113 ft | 436 kts | 274° |
| 2026-05-04 04:50 | 47.25612 | 78.13312 | 36109 ft | 436 kts | 274° |
| 2026-05-04 04:50 | 47.26146 | 78.04446 | 36104 ft | 437 kts | 274° |
| 2026-05-04 04:51 | 47.26677 | 77.95498 | 36116 ft | 437 kts | 274° |
| 2026-05-04 04:51 | 47.27200 | 77.86599 | 36110 ft | 438 kts | 274° |
| 2026-05-04 04:52 | 47.27714 | 77.77722 | 36118 ft | 438 kts | 274° |
| 2026-05-04 04:52 | 47.28225 | 77.68773 | 36116 ft | 438 kts | 274° |
| 2026-05-04 04:53 | 47.28724 | 77.59912 | 36117 ft | 437 kts | 274° |
| 2026-05-04 04:53 | 47.29220 | 77.50967 | 36126 ft | 438 kts | 274° |
| 2026-05-04 04:54 | 47.29705 | 77.42076 | 36126 ft | 438 kts | 274° |
| 2026-05-04 04:54 | 47.30185 | 77.33155 | 36122 ft | 438 kts | 273° |
| 2026-05-04 04:55 | 47.30656 | 77.24249 | 36126 ft | 438 kts | 273° |
| 2026-05-04 04:55 | 47.31121 | 77.15287 | 36122 ft | 438 kts | 273° |
| 2026-05-04 04:56 | 47.31618 | 77.06322 | 36116 ft | 439 kts | 275° |
| 2026-05-04 04:56 | 47.32475 | 76.97442 | 36130 ft | 440 kts | 277° |
| 2026-05-04 04:57 | 47.33390 | 76.88513 | 36128 ft | 440 kts | 277° |
| 2026-05-04 04:57 | 47.34291 | 76.79612 | 36136 ft | 441 kts | 277° |
| 2026-05-04 04:58 | 47.35178 | 76.70771 | 36136 ft | 440 kts | 277° |
| 2026-05-04 04:58 | 47.36067 | 76.61822 | 36132 ft | 440 kts | 277° |
| 2026-05-04 04:59 | 47.36942 | 76.52938 | 36132 ft | 441 kts | 277° |
| 2026-05-04 04:59 | 47.37813 | 76.44023 | 36138 ft | 441 kts | 277° |
| 2026-05-04 05:00 | 47.38676 | 76.35104 | 36135 ft | 441 kts | 277° |
| 2026-05-04 05:01 | 47.39967 | 76.21636 | 36134 ft | 441 kts | 276° |
| 2026-05-04 05:01 | 47.40816 | 76.12701 | 36140 ft | 441 kts | 276° |
| 2026-05-04 05:02 | 47.41663 | 76.03709 | 36151 ft | 442 kts | 276° |
| 2026-05-04 05:02 | 47.42497 | 75.94754 | 36151 ft | 442 kts | 276° |
| 2026-05-04 05:03 | 47.43327 | 75.85760 | 36151 ft | 443 kts | 277° |
| 2026-05-04 05:04 | 47.44970 | 75.67763 | 36158 ft | 443 kts | 277° |
| 2026-05-04 05:04 | 47.45779 | 75.58768 | 36154 ft | 443 kts | 277° |
| 2026-05-04 05:06 | 47.48951 | 75.22695 | 36157 ft | 444 kts | 276° |
| 2026-05-04 05:07 | 47.49730 | 75.13641 | 36159 ft | 445 kts | 276° |
| 2026-05-04 05:07 | 47.50499 | 75.04608 | 36166 ft | 445 kts | 276° |
| 2026-05-04 05:09 | 47.53891 | 74.63696 | 36168 ft | 445 kts | 276° |
| 2026-05-04 05:10 | 47.54626 | 74.54568 | 36164 ft | 446 kts | 276° |
| 2026-05-04 05:10 | 47.55351 | 74.45496 | 36172 ft | 446 kts | 276° |
| 2026-05-04 05:11 | 47.56074 | 74.36346 | 36167 ft | 446 kts | 276° |
| 2026-05-04 05:11 | 47.56784 | 74.27259 | 36169 ft | 446 kts | 276° |
| 2026-05-04 05:12 | 47.57492 | 74.18116 | 36175 ft | 447 kts | 276° |
| 2026-05-04 05:12 | 47.58192 | 74.08984 | 36172 ft | 447 kts | 276° |
| 2026-05-04 05:13 | 47.58880 | 73.99902 | 36172 ft | 447 kts | 276° |
| 2026-05-04 05:13 | 47.59566 | 73.90749 | 36175 ft | 448 kts | 276° |
| 2026-05-04 05:14 | 47.60247 | 73.81569 | 36177 ft | 448 kts | 276° |
| 2026-05-04 05:14 | 47.60918 | 73.72422 | 36179 ft | 448 kts | 276° |
| 2026-05-04 05:15 | 47.61579 | 73.63295 | 36175 ft | 448 kts | 276° |
| 2026-05-04 05:15 | 47.62238 | 73.54097 | 36178 ft | 448 kts | 276° |
| 2026-05-04 05:16 | 47.62890 | 73.44904 | 36181 ft | 448 kts | 276° |
| 2026-05-04 05:16 | 47.63473 | 73.36587 | 36182 ft | 448 kts | 276° |